createdAt,value
2022-10-13T00:01:57.518Z,101633.44
2022-10-13T00:04:59.998Z,101623.88
2022-10-13T00:08:02.587Z,101629.44
2022-10-13T00:11:13.162Z,101625.66
2022-10-13T00:14:15.655Z,101622.91
2022-10-13T00:17:18.153Z,101619.56
2022-10-13T00:20:20.717Z,101616.09
2022-10-13T00:23:23.626Z,101623.34
2022-10-13T00:26:27.935Z,101620.66
2022-10-13T00:29:30.418Z,101612.56
2022-10-13T00:32:32.897Z,101608.16
2022-10-13T00:35:40.695Z,101617.16
2022-10-13T00:38:43.653Z,101612.91
2022-10-13T00:41:47.496Z,101602.28
2022-10-13T00:45:20.602Z,101610.38
2022-10-13T00:48:26.790Z,101608.13
2022-10-13T00:51:33.308Z,101611.97
2022-10-13T00:54:35.908Z,101608.31
2022-10-13T00:57:43.644Z,101610.31
2022-10-13T01:00:48.613Z,101603.22
2022-10-13T01:03:59.998Z,101600.53
2022-10-13T01:07:03.589Z,101591.72
2022-10-13T01:10:26.073Z,101600.63
2022-10-13T01:13:38.366Z,101598.84
2022-10-13T01:16:51.748Z,101584.13
2022-10-13T01:20:29.992Z,101596.56
2022-10-13T01:24:05.755Z,101594.78
2022-10-13T01:27:34.270Z,101581.50
2022-10-13T01:30:44.386Z,101585.06
2022-10-13T01:33:56.215Z,101574.44
2022-10-13T01:37:10.550Z,101585.50
2022-10-13T01:40:20.303Z,101574.88
2022-10-13T01:43:27.125Z,101571.56
2022-10-13T01:46:34.999Z,101569.09
2022-10-13T01:49:39.086Z,101566.69
2022-10-13T01:52:43.656Z,101572.00
2022-10-13T01:55:54.426Z,101576.56
2022-10-13T01:58:59.637Z,101566.88
2022-10-13T02:02:14.907Z,101570.44
2022-10-13T02:05:26.586Z,101565.22
2022-10-13T02:08:38.014Z,101550.94
2022-10-13T02:11:48.449Z,101554.53
2022-10-13T02:14:53.170Z,101559.97
2022-10-13T02:17:57.510Z,101560.09
2022-10-13T02:21:01.519Z,101552.19
2022-10-13T02:24:05.369Z,101549.53
2022-10-13T02:27:09.159Z,101549.66
2022-10-13T02:30:22.114Z,101545.28
2022-10-13T02:33:25.980Z,101536.00
2022-10-13T02:36:28.509Z,101534.22
2022-10-13T02:39:31.153Z,101533.31
2022-10-13T02:42:33.690Z,101538.59
2022-10-13T02:45:36.228Z,101534.47
2022-10-13T02:48:40.445Z,101534.38
2022-10-13T02:51:42.947Z,101531.97
2022-10-13T02:54:45.423Z,101529.09
2022-10-13T02:57:48.101Z,101532.78
2022-10-13T03:00:50.768Z,101524.03
2022-10-13T03:03:54.694Z,101514.38
2022-10-13T03:06:57.213Z,101524.38
2022-10-13T03:09:59.703Z,101524.25
2022-10-13T03:13:02.214Z,101521.59
2022-10-13T03:16:05.233Z,101515.59
2022-10-13T03:19:09.103Z,101521.91
2022-10-13T03:22:14.527Z,101523.75
2022-10-13T03:25:17.216Z,101524.69
2022-10-13T03:28:19.823Z,101523.63
2022-10-13T03:31:22.365Z,101514.06
2022-10-13T03:34:26.283Z,101516.78
2022-10-13T03:37:30.218Z,101521.34
2022-10-13T03:40:32.992Z,101514.06
2022-10-13T03:43:36.046Z,101521.22
2022-10-13T03:46:38.527Z,101510.69
2022-10-13T03:49:42.325Z,101515.97
2022-10-13T03:52:44.805Z,101508.94
2022-10-13T03:55:50.652Z,101503.41
2022-10-13T03:58:54.517Z,101503.63
2022-10-13T04:01:57.161Z,101506.13
2022-10-13T04:05:01.039Z,101505.13
2022-10-13T04:08:03.547Z,101500.66
2022-10-13T04:11:08.526Z,101502.59
2022-10-13T04:14:11.022Z,101496.44
2022-10-13T04:17:13.509Z,101498.06
2022-10-13T04:20:17.573Z,101489.09
2022-10-13T04:23:20.059Z,101500.41
2022-10-13T04:26:23.796Z,101502.88
2022-10-13T04:29:26.306Z,101496.63
2022-10-13T04:32:28.830Z,101493.09
2022-10-13T04:35:32.858Z,101489.59
2022-10-13T04:38:35.404Z,101485.97
2022-10-13T04:41:37.869Z,101492.38
2022-10-13T04:44:40.334Z,101493.06
2022-10-13T04:47:42.814Z,101495.94
2022-10-13T04:50:46.652Z,101492.25
2022-10-13T04:53:49.357Z,101493.97
2022-10-13T04:56:51.902Z,101494.22
2022-10-13T04:59:54.381Z,101488.03
2022-10-13T05:02:56.869Z,101484.47
2022-10-13T05:06:01.580Z,101486.06
2022-10-13T05:09:05.280Z,101487.88
2022-10-13T05:12:07.937Z,101480.09
2022-10-13T05:15:11.124Z,101477.44
2022-10-13T05:18:13.627Z,101482.00
2022-10-13T05:21:19.321Z,101475.00
2022-10-13T05:24:30.889Z,101471.44
2022-10-13T05:27:33.420Z,101473.16
2022-10-13T05:30:36.486Z,101465.47
2022-10-13T05:33:39.239Z,101459.13
2022-10-13T05:36:43.077Z,101467.00
2022-10-13T05:39:48.835Z,101462.63
2022-10-13T05:42:51.938Z,101464.00
2022-10-13T05:45:54.418Z,101455.31
2022-10-13T05:48:56.932Z,101453.31
2022-10-13T05:52:03.380Z,101452.44
2022-10-13T05:55:09.206Z,101443.34
2022-10-13T05:58:11.982Z,101443.34
2022-10-13T06:01:17.329Z,101433.75
2022-10-13T06:04:23.269Z,101435.38
2022-10-13T06:07:27.261Z,101411.38
2022-10-13T06:10:29.981Z,101417.72
2022-10-13T06:13:33.706Z,101420.72
2022-10-13T06:16:37.396Z,101410.19
2022-10-13T06:19:39.861Z,101404.63
2022-10-13T06:22:43.667Z,101393.53
2022-10-13T06:25:49.893Z,101382.53
2022-10-13T06:28:56.920Z,101394.78
2022-10-13T06:32:01.713Z,101391.06
2022-10-13T06:35:04.283Z,101407.53
2022-10-13T06:38:09.199Z,101398.09
2022-10-13T06:41:14.124Z,101405.03
2022-10-13T06:44:16.586Z,101396.13
2022-10-13T06:47:19.053Z,101422.19
2022-10-13T06:50:21.621Z,101422.31
2022-10-13T06:53:25.575Z,101419.25
2022-10-13T06:56:28.074Z,101427.75
2022-10-13T06:59:30.561Z,101424.88
2022-10-13T07:02:33.053Z,101430.06
2022-10-13T07:05:35.554Z,101426.53
2022-10-13T07:08:39.352Z,101406.81
2022-10-13T07:11:44.997Z,101408.19
2022-10-13T07:14:48.079Z,101419.66
2022-10-13T07:17:51.877Z,101418.78
2022-10-13T07:20:54.347Z,101421.69
2022-10-13T07:23:58.238Z,101428.41
2022-10-13T07:27:05.257Z,101416.72
2022-10-13T07:30:11.177Z,101423.75
2022-10-13T07:33:13.658Z,101418.66
2022-10-13T07:36:16.159Z,101416.63
2022-10-13T07:39:19.983Z,101411.09
2022-10-13T07:42:22.501Z,101416.97
2022-10-13T07:45:25.261Z,101420.56
2022-10-13T07:48:28.453Z,101398.50
2022-10-13T07:51:30.989Z,101383.09
2022-10-13T07:54:34.839Z,101394.78
2022-10-13T07:57:37.588Z,101389.03
2022-10-13T08:00:40.082Z,101390.22
2022-10-13T08:03:45.706Z,101395.13
2022-10-13T08:06:51.568Z,101410.63
2022-10-13T08:09:55.676Z,101394.84
2022-10-13T08:12:58.171Z,101393.44
2022-10-13T08:16:02.317Z,101391.38
2022-10-13T08:19:04.805Z,101402.66
2022-10-13T08:22:09.712Z,101394.09
2022-10-13T08:25:13.741Z,101389.28
2022-10-13T08:28:19.858Z,101395.41
2022-10-13T08:31:22.563Z,101390.56
2022-10-13T08:34:26.229Z,101381.22
2022-10-13T08:37:29.275Z,101383.84
2022-10-13T08:40:33.207Z,101370.63
2022-10-13T08:43:45.268Z,101372.78
2022-10-13T08:47:02.711Z,101367.38
2022-10-13T08:50:12.602Z,101372.53
2022-10-13T08:53:23.703Z,101366.50
2022-10-13T08:56:31.834Z,101375.81
2022-10-13T08:59:34.401Z,101377.63
2022-10-13T09:02:39.018Z,101378.66
2022-10-13T09:05:47.840Z,101378.78
2022-10-13T09:08:54.553Z,101376.47
2022-10-13T09:11:59.522Z,101375.16
2022-10-13T09:15:05.607Z,101387.06
2022-10-13T09:18:14.089Z,101391.84
2022-10-13T09:21:21.400Z,101385.78
2022-10-13T09:24:25.936Z,101373.13
2022-10-13T09:27:29.746Z,101378.94
2022-10-13T09:30:35.273Z,101373.06
2022-10-13T09:33:38.531Z,101360.13
2022-10-13T09:36:56.442Z,101354.31
2022-10-13T09:40:12.611Z,101358.28
2022-10-13T09:43:30.499Z,101361.47
2022-10-13T09:46:35.200Z,101360.31
2022-10-13T09:49:40.526Z,101367.84
2022-10-13T09:52:43.472Z,101355.56
2022-10-13T09:55:48.500Z,101355.53
2022-10-13T09:59:02.083Z,101365.22
2022-10-13T10:02:21.363Z,101355.09
2022-10-13T10:05:29.301Z,101362.84
2022-10-13T10:09:01.333Z,101352.94
2022-10-13T10:12:03.477Z,101360.34
2022-10-13T10:15:20.585Z,101359.88
2022-10-13T10:18:30.839Z,101353.13
2022-10-13T10:21:39.335Z,101353.44
2022-10-13T10:24:50.254Z,101352.09
2022-10-13T10:28:06.204Z,101354.09
2022-10-13T10:31:21.972Z,101348.03
2022-10-13T10:34:33.502Z,101339.91
2022-10-13T10:37:54.626Z,101342.28
2022-10-13T10:41:05.121Z,101332.84
2022-10-13T10:44:11.234Z,101318.81
2022-10-13T10:47:23.401Z,101329.59
2022-10-13T10:50:26.889Z,101322.06
2022-10-13T10:53:39.002Z,101318.34
2022-10-13T10:56:47.539Z,101318.03
2022-10-13T10:59:58.549Z,101312.66
2022-10-13T11:03:10.558Z,101311.28
2022-10-13T11:06:34.913Z,101291.72
2022-10-13T11:10:16.961Z,101297.88
2022-10-13T11:13:20.912Z,101297.00
2022-10-13T11:16:33.126Z,101289.06
2022-10-13T11:19:38.390Z,101286.38
2022-10-13T11:22:40.877Z,101275.25
2022-10-13T11:25:44.587Z,101268.16
2022-10-13T11:28:48.741Z,101258.53
2022-10-13T11:31:54.972Z,101259.50
2022-10-13T11:35:01.485Z,101243.84
2022-10-13T11:38:29.272Z,101252.16
2022-10-13T11:41:42.450Z,101257.47
2022-10-13T11:44:54.754Z,101247.78
2022-10-13T11:48:24.794Z,101250.63
2022-10-13T11:51:40.677Z,101254.84
2022-10-13T11:54:50.777Z,101255.53
2022-10-13T11:58:08.958Z,101237.44
2022-10-13T12:01:15.246Z,101237.38
2022-10-13T12:04:22.813Z,101229.63
2022-10-13T12:07:29.194Z,101226.72
2022-10-13T12:10:34.799Z,101226.66
2022-10-13T12:13:37.383Z,101223.50
2022-10-13T12:16:52.634Z,101230.91
2022-10-13T12:19:56.951Z,101229.69
2022-10-13T12:23:00.815Z,101234.09
2022-10-13T12:26:03.597Z,101230.84
2022-10-13T12:29:12.669Z,101229.03
2022-10-13T12:32:20.979Z,101235.31
2022-10-13T12:35:26.917Z,101224.25
2022-10-13T12:38:30.856Z,101223.91
2022-10-13T12:41:36.117Z,101218.88
2022-10-13T12:44:39.048Z,101223.59
2022-10-13T12:47:49.183Z,101216.28
2022-10-13T12:50:51.879Z,101213.22
2022-10-13T12:53:56.056Z,101209.00
2022-10-13T12:57:01.456Z,101214.56
2022-10-13T13:00:05.654Z,101206.63
2022-10-13T13:03:08.505Z,101213.09
2022-10-13T13:06:23.325Z,101206.72
2022-10-13T13:09:28.588Z,101189.25
2022-10-13T13:12:31.429Z,101202.66
2022-10-13T13:15:36.228Z,101192.16
2022-10-13T13:18:41.692Z,101196.16
2022-10-13T13:21:44.245Z,101195.03
2022-10-13T13:24:50.247Z,101197.13
2022-10-13T13:27:53.449Z,101198.31
2022-10-13T13:30:55.934Z,101199.41
2022-10-13T13:33:58.446Z,101201.38
2022-10-13T13:37:03.190Z,101200.38
2022-10-13T13:40:09.257Z,101192.59
2022-10-13T13:43:11.903Z,101197.25
2022-10-13T13:46:17.912Z,101193.19
2022-10-13T13:49:20.397Z,101197.81
2022-10-13T13:52:23.847Z,101204.66
2022-10-13T13:55:29.557Z,101199.19
2022-10-13T13:58:32.094Z,101193.72
2022-10-13T14:01:34.694Z,101195.63
2022-10-13T14:04:37.200Z,101209.13
2022-10-13T14:07:39.724Z,101200.78
2022-10-13T14:10:43.567Z,101200.38
2022-10-13T14:13:46.347Z,101195.41
2022-10-13T14:16:48.812Z,101195.91
2022-10-13T14:19:51.329Z,101197.66
2022-10-13T14:22:53.840Z,101202.47
2022-10-13T14:25:57.644Z,101192.53
2022-10-13T14:29:00.429Z,101195.56
2022-10-13T14:32:03.455Z,101179.09
2022-10-13T14:35:07.169Z,101186.16
2022-10-13T14:38:11.198Z,101188.56
2022-10-13T14:41:16.941Z,101180.09
2022-10-13T14:44:19.694Z,101175.06
2022-10-13T14:47:22.626Z,101180.28
2022-10-13T14:50:25.468Z,101179.06
2022-10-13T14:53:28.326Z,101181.81
2022-10-13T14:56:32.358Z,101185.63
2022-10-13T14:59:34.888Z,101175.16
2022-10-13T15:02:37.357Z,101171.72
2022-10-13T15:05:39.838Z,101173.25
2022-10-13T15:08:42.822Z,101170.78
2022-10-13T15:11:47.777Z,101167.50
2022-10-13T15:14:50.278Z,101168.03
2022-10-13T15:17:52.750Z,101168.84
2022-10-13T15:20:55.678Z,101159.16
2022-10-13T15:23:58.311Z,101164.03
2022-10-13T15:27:02.178Z,101165.75
2022-10-13T15:30:05.202Z,101171.31
2022-10-13T15:33:07.693Z,101163.03
2022-10-13T15:36:10.212Z,101165.84
2022-10-13T15:39:12.680Z,101165.66
2022-10-13T15:42:16.519Z,101161.53
2022-10-13T15:45:19.013Z,101164.09
2022-10-13T15:48:21.539Z,101156.84
2022-10-13T15:51:26.682Z,101154.34
2022-10-13T15:54:29.174Z,101160.81
2022-10-13T15:57:33.062Z,101154.94
2022-10-13T16:00:35.665Z,101159.25
2022-10-13T16:03:38.920Z,101163.13
2022-10-13T16:06:41.405Z,101166.31
2022-10-13T16:09:43.873Z,101163.38
2022-10-13T16:12:49.779Z,101155.19
2022-10-13T16:16:02.458Z,101156.06
2022-10-13T16:19:04.950Z,101153.06
2022-10-13T16:22:07.541Z,101157.75
2022-10-13T16:25:10.988Z,101153.09
2022-10-13T16:28:15.389Z,101162.81
2022-10-13T16:31:18.193Z,101164.25
2022-10-13T16:34:22.707Z,101159.25
2022-10-13T16:37:25.229Z,101157.44
2022-10-13T16:40:28.083Z,101149.31
2022-10-13T16:43:32.526Z,101160.13
2022-10-13T16:46:35.025Z,101155.47
2022-10-13T16:49:37.543Z,101158.19
2022-10-13T16:52:40.054Z,101152.78
2022-10-13T16:55:42.928Z,101157.91
2022-10-13T16:58:47.046Z,101162.69
2022-10-13T17:01:49.697Z,101161.03
2022-10-13T17:04:52.306Z,101160.31
2022-10-13T17:07:54.838Z,101160.31
2022-10-13T17:10:58.425Z,101153.50
2022-10-13T17:14:03.067Z,101160.66
2022-10-13T17:17:05.650Z,101162.53
2022-10-13T17:20:08.742Z,101162.53
2022-10-13T17:23:11.234Z,101158.59
2022-10-13T17:26:15.323Z,101164.31
2022-10-13T17:29:19.255Z,101159.81
2022-10-13T17:32:22.003Z,101158.19
2022-10-13T17:35:24.493Z,101160.66
2022-10-13T17:38:27.033Z,101166.22
2022-10-13T17:41:29.555Z,101162.75
2022-10-13T17:44:33.726Z,101167.34
2022-10-13T17:47:36.235Z,101164.72
2022-10-13T17:50:38.806Z,101164.22
2022-10-13T17:53:42.584Z,101162.38
2022-10-13T17:56:46.132Z,101163.38
2022-10-13T17:59:50.111Z,101165.81
2022-10-13T18:02:52.769Z,101164.50
2022-10-13T18:05:55.321Z,101158.44
2022-10-13T18:08:58.003Z,101161.06
2022-10-13T18:12:00.526Z,101162.56
2022-10-13T18:15:04.794Z,101158.00
2022-10-13T18:18:07.542Z,101153.38
2022-10-13T18:21:12.184Z,101163.38
2022-10-13T18:24:14.737Z,101158.19
2022-10-13T18:27:17.240Z,101168.09
2022-10-13T18:30:22.470Z,101170.00
2022-10-13T18:33:25.202Z,101168.78
2022-10-13T18:36:30.164Z,101167.13
2022-10-13T18:39:34.284Z,101168.59
2022-10-13T18:42:36.794Z,101167.38
2022-10-13T18:45:40.616Z,101167.84
2022-10-13T18:48:43.138Z,101171.38
2022-10-13T18:51:45.934Z,101170.00
2022-10-13T18:54:50.610Z,101169.31
2022-10-13T18:57:53.370Z,101170.25
2022-10-13T19:01:01.328Z,101167.75
2022-10-13T19:04:04.985Z,101167.06
2022-10-13T19:07:07.509Z,101173.53
2022-10-13T19:10:10.674Z,101170.31
2022-10-13T19:13:13.169Z,101173.94
2022-10-13T19:16:19.133Z,101169.69
2022-10-13T19:19:21.612Z,101169.28
2022-10-13T19:22:24.140Z,101167.94
2022-10-13T19:25:26.642Z,101167.75
2022-10-13T19:28:29.157Z,101171.13
2022-10-13T19:31:34.745Z,101165.38
2022-10-13T19:34:37.247Z,101169.03
2022-10-13T19:37:40.451Z,101168.63
2022-10-13T19:40:43.740Z,101176.00
2022-10-13T19:43:46.270Z,101181.97
2022-10-13T19:46:51.451Z,101178.53
2022-10-13T19:49:53.988Z,101184.28
2022-10-13T19:52:56.588Z,101178.22
2022-10-13T19:55:59.242Z,101181.44
2022-10-13T19:59:04.182Z,101188.13
2022-10-13T20:02:08.045Z,101182.88
2022-10-13T20:05:10.702Z,101193.28
2022-10-13T20:08:14.125Z,101187.31
2022-10-13T20:11:23.320Z,101182.31
2022-10-13T20:14:28.270Z,101175.69
2022-10-13T20:17:32.110Z,101174.06
2022-10-13T20:20:34.870Z,101174.56
2022-10-13T20:23:37.889Z,101172.47
2022-10-13T20:26:40.924Z,101174.31
2022-10-13T20:29:43.432Z,101173.44
2022-10-13T20:32:47.248Z,101171.16
2022-10-13T20:35:49.752Z,101176.97
2022-10-13T20:38:52.526Z,101178.94
2022-10-13T20:41:55.018Z,101181.22
2022-10-13T20:44:57.869Z,101177.34
2022-10-13T20:48:01.694Z,101185.91
2022-10-13T20:51:06.170Z,101184.38
2022-10-13T20:54:08.779Z,101177.44
2022-10-13T20:57:11.477Z,101181.59
2022-10-13T21:00:14.485Z,101177.88
2022-10-13T21:03:19.409Z,101174.00
2022-10-13T21:06:23.559Z,101179.13
2022-10-13T21:09:26.794Z,101173.72
2022-10-13T21:12:29.284Z,101176.34
2022-10-13T21:15:31.922Z,101173.69
2022-10-13T21:18:35.767Z,101175.72
2022-10-13T21:21:38.685Z,101175.69
2022-10-13T21:24:41.280Z,101172.09
2022-10-13T21:27:43.749Z,101171.91
2022-10-13T21:30:46.259Z,101176.09
2022-10-13T21:33:50.860Z,101179.94
2022-10-13T21:36:53.399Z,101174.78
2022-10-13T21:39:55.889Z,101177.84
2022-10-13T21:42:58.375Z,101178.44
2022-10-13T21:46:09.264Z,101185.16
2022-10-13T21:49:13.125Z,101178.78
2022-10-13T21:52:16.002Z,101179.78
2022-10-13T21:55:18.489Z,101177.09
2022-10-13T21:58:20.948Z,101178.59
2022-10-13T22:01:24.601Z,101178.22
2022-10-13T22:04:28.407Z,101171.91
2022-10-13T22:07:30.940Z,101178.84
2022-10-13T22:10:35.238Z,101179.19
2022-10-13T22:13:37.950Z,101168.72
2022-10-13T22:16:42.963Z,101168.34
2022-10-13T22:19:46.802Z,101172.44
2022-10-13T22:22:49.285Z,101167.09
2022-10-13T22:25:54.063Z,101171.31
2022-10-13T22:28:57.322Z,101168.00
2022-10-13T22:32:00.282Z,101163.09
2022-10-13T22:35:04.470Z,101166.41
2022-10-13T22:38:06.954Z,101158.19
2022-10-13T22:41:10.308Z,101154.97
2022-10-13T22:44:13.439Z,101157.00
2022-10-13T22:47:15.916Z,101156.81
2022-10-13T22:50:20.027Z,101156.06
2022-10-13T22:53:22.566Z,101156.19
2022-10-13T22:56:27.119Z,101155.31
2022-10-13T22:59:29.608Z,101159.19
2022-10-13T23:02:32.132Z,101161.56
2022-10-13T23:05:35.943Z,101151.16
2022-10-13T23:08:38.950Z,101154.16
2022-10-13T23:11:41.726Z,101151.63
2022-10-13T23:14:44.220Z,101145.38
2022-10-13T23:17:46.717Z,101149.13
2022-10-13T23:20:54.445Z,101137.38
2022-10-13T23:24:00.839Z,101139.69
2022-10-13T23:27:03.330Z,101133.13
2022-10-13T23:30:07.168Z,101137.38
2022-10-13T23:33:09.674Z,101132.91
2022-10-13T23:36:17.250Z,101136.41
2022-10-13T23:39:20.817Z,101129.13
2022-10-13T23:42:23.327Z,101132.38
2022-10-13T23:45:25.794Z,101132.41
2022-10-13T23:48:28.609Z,101137.66
2022-10-13T23:51:33.052Z,101131.63
2022-10-13T23:54:35.571Z,101134.94
2022-10-13T23:57:38.072Z,101118.84
